sensor_id;sensor_type;location;lat;lon;timestamp;P1;durP1;ratioP1;P2;durP2;ratioP2
72127;SDS011;60000;51.030;7.024;2023-03-03T00:01:17;23.90;;;9.33;;
72127;SDS011;60000;51.030;7.024;2023-03-03T00:03:42;24.25;;;9.30;;
72127;SDS011;60000;51.030;7.024;2023-03-03T00:06:09;19.60;;;8.80;;
72127;SDS011;60000;51.030;7.024;2023-03-03T00:08:36;24.30;;;10.05;;
72127;SDS011;60000;51.030;7.024;2023-03-03T00:11:02;25.33;;;9.93;;
72127;SDS011;60000;51.030;7.024;2023-03-03T00:13:30;25.77;;;11.10;;
72127;SDS011;60000;51.030;7.024;2023-03-03T00:18:40;32.20;;;13.65;;
72127;SDS011;60000;51.030;7.024;2023-03-03T00:21:17;29.20;;;12.80;;
72127;SDS011;60000;51.030;7.024;2023-03-03T00:23:47;32.55;;;14.35;;
72127;SDS011;60000;51.030;7.024;2023-03-03T00:28:45;27.45;;;11.60;;
72127;SDS011;60000;51.030;7.024;2023-03-03T00:31:14;28.35;;;12.55;;
72127;SDS011;60000;51.030;7.024;2023-03-03T00:33:47;26.63;;;11.32;;
72127;SDS011;60000;51.030;7.024;2023-03-03T00:38:53;25.90;;;11.37;;
72127;SDS011;60000;51.030;7.024;2023-03-03T00:41:21;26.50;;;11.30;;
72127;SDS011;60000;51.030;7.024;2023-03-03T00:43:48;30.58;;;12.23;;
72127;SDS011;60000;51.030;7.024;2023-03-03T00:46:15;27.42;;;11.27;;
72127;SDS011;60000;51.030;7.024;2023-03-03T00:48:43;22.67;;;10.17;;
72127;SDS011;60000;51.030;7.024;2023-03-03T00:53:47;24.50;;;11.20;;
72127;SDS011;60000;51.030;7.024;2023-03-03T00:56:12;31.03;;;11.83;;
72127;SDS011;60000;51.030;7.024;2023-03-03T00:58:38;25.80;;;10.35;;
72127;SDS011;60000;51.030;7.024;2023-03-03T01:01:03;27.57;;;11.03;;
72127;SDS011;60000;51.030;7.024;2023-03-03T01:03:28;26.70;;;10.50;;
72127;SDS011;60000;51.030;7.024;2023-03-03T01:05:54;27.47;;;11.10;;
72127;SDS011;60000;51.030;7.024;2023-03-03T01:08:19;34.60;;;14.90;;
72127;SDS011;60000;51.030;7.024;2023-03-03T01:10:53;37.22;;;15.55;;
72127;SDS011;60000;51.030;7.024;2023-03-03T01:13:22;34.47;;;15.23;;
72127;SDS011;60000;51.030;7.024;2023-03-03T01:15:51;33.05;;;13.73;;
72127;SDS011;60000;51.030;7.024;2023-03-03T01:18:16;36.40;;;14.53;;
72127;SDS011;60000;51.030;7.024;2023-03-03T01:20:42;34.53;;;13.95;;
72127;SDS011;60000;51.030;7.024;2023-03-03T01:23:07;31.73;;;13.23;;
72127;SDS011;60000;51.030;7.024;2023-03-03T01:25:33;31.57;;;13.07;;
72127;SDS011;60000;51.030;7.024;2023-03-03T01:27:59;33.10;;;13.63;;
72127;SDS011;60000;51.030;7.024;2023-03-03T01:30:24;31.27;;;12.87;;
72127;SDS011;60000;51.030;7.024;2023-03-03T01:32:50;34.43;;;14.90;;
72127;SDS011;60000;51.030;7.024;2023-03-03T01:35:16;30.13;;;12.90;;
72127;SDS011;60000;51.030;7.024;2023-03-03T01:37:41;32.20;;;13.47;;
72127;SDS011;60000;51.030;7.024;2023-03-03T01:40:10;29.00;;;12.10;;
72127;SDS011;60000;51.030;7.024;2023-03-03T01:42:39;30.73;;;12.73;;
72127;SDS011;60000;51.030;7.024;2023-03-03T01:47:48;32.40;;;13.02;;
72127;SDS011;60000;51.030;7.024;2023-03-03T01:53:03;37.17;;;15.57;;
72127;SDS011;60000;51.030;7.024;2023-03-03T01:55:34;38.60;;;15.17;;
72127;SDS011;60000;51.030;7.024;2023-03-03T01:58:04;34.42;;;14.63;;
72127;SDS011;60000;51.030;7.024;2023-03-03T02:00:35;33.58;;;13.95;;
72127;SDS011;60000;51.030;7.024;2023-03-03T02:03:03;33.65;;;14.38;;
72127;SDS011;60000;51.030;7.024;2023-03-03T02:05:28;39.37;;;15.87;;
72127;SDS011;60000;51.030;7.024;2023-03-03T02:07:54;36.60;;;15.52;;
72127;SDS011;60000;51.030;7.024;2023-03-03T02:10:19;32.97;;;14.30;;
72127;SDS011;60000;51.030;7.024;2023-03-03T02:12:50;36.27;;;15.10;;
72127;SDS011;60000;51.030;7.024;2023-03-03T02:15:21;35.78;;;14.10;;
72127;SDS011;60000;51.030;7.024;2023-03-03T02:17:54;35.85;;;14.15;;
72127;SDS011;60000;51.030;7.024;2023-03-03T02:26:13;34.60;;;14.23;;
72127;SDS011;60000;51.030;7.024;2023-03-03T02:28:40;35.08;;;14.23;;
72127;SDS011;60000;51.030;7.024;2023-03-03T02:31:08;34.58;;;12.63;;
72127;SDS011;60000;51.030;7.024;2023-03-03T02:33:37;33.28;;;12.70;;
72127;SDS011;60000;51.030;7.024;2023-03-03T02:36:03;30.38;;;12.52;;
72127;SDS011;60000;51.030;7.024;2023-03-03T02:38:36;35.33;;;14.10;;
72127;SDS011;60000;51.030;7.024;2023-03-03T02:44:06;27.57;;;11.53;;
72127;SDS011;60000;51.030;7.024;2023-03-03T02:46:34;35.08;;;13.23;;
72127;SDS011;60000;51.030;7.024;2023-03-03T02:49:01;34.85;;;14.70;;
72127;SDS011;60000;51.030;7.024;2023-03-03T02:51:28;37.13;;;14.25;;
72127;SDS011;60000;51.030;7.024;2023-03-03T02:53:54;36.85;;;13.75;;
72127;SDS011;60000;51.030;7.024;2023-03-03T02:56:19;31.98;;;13.25;;
72127;SDS011;60000;51.030;7.024;2023-03-03T02:58:44;27.33;;;10.50;;
72127;SDS011;60000;51.030;7.024;2023-03-03T03:01:10;32.03;;;12.93;;
72127;SDS011;60000;51.030;7.024;2023-03-03T03:03:35;35.43;;;12.57;;
72127;SDS011;60000;51.030;7.024;2023-03-03T03:06:00;30.13;;;12.00;;
72127;SDS011;60000;51.030;7.024;2023-03-03T03:08:26;31.70;;;13.98;;
72127;SDS011;60000;51.030;7.024;2023-03-03T03:10:51;39.93;;;15.30;;
72127;SDS011;60000;51.030;7.024;2023-03-03T03:13:17;38.00;;;14.77;;
72127;SDS011;60000;51.030;7.024;2023-03-03T03:15:44;33.90;;;13.20;;
72127;SDS011;60000;51.030;7.024;2023-03-03T03:18:10;34.13;;;13.23;;
72127;SDS011;60000;51.030;7.024;2023-03-03T03:20:36;29.20;;;11.43;;
72127;SDS011;60000;51.030;7.024;2023-03-03T03:23:04;31.17;;;11.88;;
72127;SDS011;60000;51.030;7.024;2023-03-03T03:25:29;28.83;;;11.90;;
72127;SDS011;60000;51.030;7.024;2023-03-03T03:27:55;22.47;;;9.57;;
72127;SDS011;60000;51.030;7.024;2023-03-03T03:30:20;29.38;;;11.40;;
72127;SDS011;60000;51.030;7.024;2023-03-03T03:32:46;25.73;;;10.17;;
72127;SDS011;60000;51.030;7.024;2023-03-03T03:35:11;30.42;;;11.13;;
72127;SDS011;60000;51.030;7.024;2023-03-03T03:37:37;32.13;;;12.50;;
72127;SDS011;60000;51.030;7.024;2023-03-03T03:40:03;33.07;;;13.40;;
72127;SDS011;60000;51.030;7.024;2023-03-03T03:42:29;34.47;;;13.57;;
72127;SDS011;60000;51.030;7.024;2023-03-03T03:44:55;33.27;;;12.70;;
72127;SDS011;60000;51.030;7.024;2023-03-03T03:47:20;30.80;;;11.93;;
72127;SDS011;60000;51.030;7.024;2023-03-03T03:49:45;30.33;;;11.13;;
72127;SDS011;60000;51.030;7.024;2023-03-03T03:52:11;30.03;;;11.50;;
72127;SDS011;60000;51.030;7.024;2023-03-03T03:54:36;30.37;;;11.47;;
72127;SDS011;60000;51.030;7.024;2023-03-03T03:57:01;29.17;;;11.40;;
72127;SDS011;60000;51.030;7.024;2023-03-03T03:59:27;28.97;;;10.60;;
72127;SDS011;60000;51.030;7.024;2023-03-03T04:01:52;27.87;;;10.33;;
72127;SDS011;60000;51.030;7.024;2023-03-03T04:04:17;22.67;;;9.33;;
72127;SDS011;60000;51.030;7.024;2023-03-03T04:06:43;26.73;;;9.88;;
72127;SDS011;60000;51.030;7.024;2023-03-03T04:09:09;26.48;;;10.82;;
72127;SDS011;60000;51.030;7.024;2023-03-03T04:11:34;27.30;;;11.33;;
72127;SDS011;60000;51.030;7.024;2023-03-03T04:13:59;23.80;;;9.27;;
72127;SDS011;60000;51.030;7.024;2023-03-03T04:16:25;22.63;;;9.50;;
72127;SDS011;60000;51.030;7.024;2023-03-03T04:18:50;24.73;;;8.33;;
72127;SDS011;60000;51.030;7.024;2023-03-03T04:21:15;22.07;;;9.23;;
72127;SDS011;60000;51.030;7.024;2023-03-03T04:23:41;26.43;;;10.73;;
72127;SDS011;60000;51.030;7.024;2023-03-03T04:26:07;28.37;;;10.87;;
72127;SDS011;60000;51.030;7.024;2023-03-03T04:28:33;25.48;;;10.27;;
72127;SDS011;60000;51.030;7.024;2023-03-03T04:30:58;23.87;;;9.53;;
72127;SDS011;60000;51.030;7.024;2023-03-03T04:33:24;21.90;;;8.77;;
72127;SDS011;60000;51.030;7.024;2023-03-03T04:35:50;23.70;;;9.03;;
72127;SDS011;60000;51.030;7.024;2023-03-03T04:38:15;26.80;;;10.43;;
72127;SDS011;60000;51.030;7.024;2023-03-03T04:40:41;26.80;;;10.00;;
72127;SDS011;60000;51.030;7.024;2023-03-03T04:43:07;29.05;;;11.07;;
72127;SDS011;60000;51.030;7.024;2023-03-03T04:45:33;25.52;;;10.48;;
72127;SDS011;60000;51.030;7.024;2023-03-03T04:47:58;28.20;;;10.73;;
72127;SDS011;60000;51.030;7.024;2023-03-03T04:50:24;27.77;;;10.17;;
72127;SDS011;60000;51.030;7.024;2023-03-03T04:52:49;27.97;;;10.73;;
72127;SDS011;60000;51.030;7.024;2023-03-03T04:55:14;31.47;;;11.37;;
72127;SDS011;60000;51.030;7.024;2023-03-03T04:57:41;29.10;;;10.43;;
72127;SDS011;60000;51.030;7.024;2023-03-03T05:00:06;29.52;;;10.98;;
72127;SDS011;60000;51.030;7.024;2023-03-03T05:02:33;28.23;;;10.65;;
72127;SDS011;60000;51.030;7.024;2023-03-03T05:04:58;28.07;;;11.13;;
72127;SDS011;60000;51.030;7.024;2023-03-03T05:07:23;25.90;;;9.43;;
72127;SDS011;60000;51.030;7.024;2023-03-03T05:09:49;36.23;;;12.27;;
72127;SDS011;60000;51.030;7.024;2023-03-03T05:12:14;28.10;;;10.53;;
72127;SDS011;60000;51.030;7.024;2023-03-03T05:14:40;27.98;;;10.57;;
72127;SDS011;60000;51.030;7.024;2023-03-03T05:17:06;34.97;;;12.67;;
72127;SDS011;60000;51.030;7.024;2023-03-03T05:19:31;28.13;;;10.83;;
72127;SDS011;60000;51.030;7.024;2023-03-03T05:21:58;26.15;;;9.70;;
72127;SDS011;60000;51.030;7.024;2023-03-03T05:24:24;34.63;;;11.50;;
72127;SDS011;60000;51.030;7.024;2023-03-03T05:26:49;26.07;;;10.53;;
72127;SDS011;60000;51.030;7.024;2023-03-03T05:29:15;26.98;;;10.77;;
72127;SDS011;60000;51.030;7.024;2023-03-03T05:31:40;29.52;;;10.95;;
72127;SDS011;60000;51.030;7.024;2023-03-03T05:34:05;29.67;;;11.30;;
72127;SDS011;60000;51.030;7.024;2023-03-03T05:36:31;26.07;;;11.20;;
72127;SDS011;60000;51.030;7.024;2023-03-03T05:38:56;27.43;;;10.80;;
72127;SDS011;60000;51.030;7.024;2023-03-03T05:41:21;26.30;;;10.30;;
72127;SDS011;60000;51.030;7.024;2023-03-03T05:43:47;26.33;;;10.53;;
72127;SDS011;60000;51.030;7.024;2023-03-03T05:46:12;27.77;;;10.97;;
72127;SDS011;60000;51.030;7.024;2023-03-03T05:48:37;29.33;;;10.77;;
72127;SDS011;60000;51.030;7.024;2023-03-03T05:51:03;27.80;;;10.02;;
72127;SDS011;60000;51.030;7.024;2023-03-03T05:53:29;27.27;;;10.13;;
72127;SDS011;60000;51.030;7.024;2023-03-03T05:55:56;26.85;;;10.27;;
72127;SDS011;60000;51.030;7.024;2023-03-03T05:58:22;26.03;;;10.13;;
72127;SDS011;60000;51.030;7.024;2023-03-03T06:00:47;26.48;;;9.98;;
72127;SDS011;60000;51.030;7.024;2023-03-03T06:03:12;28.37;;;10.63;;
72127;SDS011;60000;51.030;7.024;2023-03-03T06:05:38;28.33;;;10.00;;
72127;SDS011;60000;51.030;7.024;2023-03-03T06:08:03;23.73;;;9.50;;
72127;SDS011;60000;51.030;7.024;2023-03-03T06:10:29;27.47;;;9.97;;
72127;SDS011;60000;51.030;7.024;2023-03-03T06:12:54;26.17;;;10.70;;
72127;SDS011;60000;51.030;7.024;2023-03-03T06:15:20;26.30;;;10.57;;
72127;SDS011;60000;51.030;7.024;2023-03-03T06:17:47;21.98;;;8.15;;
72127;SDS011;60000;51.030;7.024;2023-03-03T06:20:13;24.03;;;9.03;;
72127;SDS011;60000;51.030;7.024;2023-03-03T06:22:38;25.30;;;9.98;;
72127;SDS011;60000;51.030;7.024;2023-03-03T06:25:04;22.07;;;8.50;;
72127;SDS011;60000;51.030;7.024;2023-03-03T06:27:29;24.87;;;9.63;;
72127;SDS011;60000;51.030;7.024;2023-03-03T06:29:55;27.57;;;10.00;;
72127;SDS011;60000;51.030;7.024;2023-03-03T06:32:20;23.37;;;7.90;;
72127;SDS011;60000;51.030;7.024;2023-03-03T06:34:45;21.73;;;8.38;;
72127;SDS011;60000;51.030;7.024;2023-03-03T06:37:11;24.10;;;8.50;;
72127;SDS011;60000;51.030;7.024;2023-03-03T06:39:36;21.03;;;8.37;;
72127;SDS011;60000;51.030;7.024;2023-03-03T06:42:01;25.80;;;9.53;;
72127;SDS011;60000;51.030;7.024;2023-03-03T06:44:27;20.87;;;7.23;;
72127;SDS011;60000;51.030;7.024;2023-03-03T06:46:52;23.23;;;9.23;;
72127;SDS011;60000;51.030;7.024;2023-03-03T06:49:17;24.33;;;9.13;;
72127;SDS011;60000;51.030;7.024;2023-03-03T06:51:43;20.13;;;7.75;;
72127;SDS011;60000;51.030;7.024;2023-03-03T06:54:17;24.73;;;9.23;;
72127;SDS011;60000;51.030;7.024;2023-03-03T06:56:45;21.05;;;7.97;;
72127;SDS011;60000;51.030;7.024;2023-03-03T07:01:41;23.35;;;9.20;;
72127;SDS011;60000;51.030;7.024;2023-03-03T07:04:24;20.63;;;7.97;;
72127;SDS011;60000;51.030;7.024;2023-03-03T07:06:56;18.63;;;7.57;;
72127;SDS011;60000;51.030;7.024;2023-03-03T07:11:50;23.63;;;8.68;;
72127;SDS011;60000;51.030;7.024;2023-03-03T07:14:19;23.38;;;9.10;;
72127;SDS011;60000;51.030;7.024;2023-03-03T07:16:45;22.57;;;8.93;;
72127;SDS011;60000;51.030;7.024;2023-03-03T07:19:18;20.55;;;7.95;;
72127;SDS011;60000;51.030;7.024;2023-03-03T07:21:47;20.70;;;8.00;;
72127;SDS011;60000;51.030;7.024;2023-03-03T07:24:28;18.48;;;7.78;;
72127;SDS011;60000;51.030;7.024;2023-03-03T07:26:58;20.45;;;7.65;;
72127;SDS011;60000;51.030;7.024;2023-03-03T07:29:30;20.37;;;6.90;;
72127;SDS011;60000;51.030;7.024;2023-03-03T07:31:58;21.02;;;7.57;;
72127;SDS011;60000;51.030;7.024;2023-03-03T07:34:29;18.30;;;7.70;;
72127;SDS011;60000;51.030;7.024;2023-03-03T07:37:03;20.55;;;8.05;;
72127;SDS011;60000;51.030;7.024;2023-03-03T07:39:35;20.85;;;8.07;;
72127;SDS011;60000;51.030;7.024;2023-03-03T07:42:11;20.87;;;7.67;;
72127;SDS011;60000;51.030;7.024;2023-03-03T07:44:43;19.27;;;7.10;;
72127;SDS011;60000;51.030;7.024;2023-03-03T07:47:20;20.70;;;8.13;;
72127;SDS011;60000;51.030;7.024;2023-03-03T07:49:48;20.20;;;7.35;;
72127;SDS011;60000;51.030;7.024;2023-03-03T07:54:43;17.13;;;7.33;;
72127;SDS011;60000;51.030;7.024;2023-03-03T07:59:35;19.07;;;7.20;;
72127;SDS011;60000;51.030;7.024;2023-03-03T08:02:02;19.00;;;7.28;;
72127;SDS011;60000;51.030;7.024;2023-03-03T08:04:46;18.08;;;6.50;;
72127;SDS011;60000;51.030;7.024;2023-03-03T08:07:18;20.27;;;7.45;;
72127;SDS011;60000;51.030;7.024;2023-03-03T08:09:48;16.27;;;6.10;;
72127;SDS011;60000;51.030;7.024;2023-03-03T08:12:18;18.17;;;6.63;;
72127;SDS011;60000;51.030;7.024;2023-03-03T08:14:51;16.65;;;6.50;;
72127;SDS011;60000;51.030;7.024;2023-03-03T08:17:22;18.80;;;6.78;;
72127;SDS011;60000;51.030;7.024;2023-03-03T08:19:52;18.48;;;6.32;;
72127;SDS011;60000;51.030;7.024;2023-03-03T08:22:40;16.07;;;6.17;;
72127;SDS011;60000;51.030;7.024;2023-03-03T08:25:04;16.15;;;6.13;;
72127;SDS011;60000;51.030;7.024;2023-03-03T08:27:30;16.55;;;5.85;;
72127;SDS011;60000;51.030;7.024;2023-03-03T08:29:55;18.80;;;7.87;;
72127;SDS011;60000;51.030;7.024;2023-03-03T08:32:21;18.80;;;7.13;;
72127;SDS011;60000;51.030;7.024;2023-03-03T08:34:46;19.97;;;7.33;;
72127;SDS011;60000;51.030;7.024;2023-03-03T08:37:12;17.60;;;6.87;;
72127;SDS011;60000;51.030;7.024;2023-03-03T08:39:37;21.97;;;8.33;;
72127;SDS011;60000;51.030;7.024;2023-03-03T08:42:02;20.63;;;7.93;;
72127;SDS011;60000;51.030;7.024;2023-03-03T08:44:28;19.60;;;7.27;;
72127;SDS011;60000;51.030;7.024;2023-03-03T08:46:53;21.03;;;7.40;;
72127;SDS011;60000;51.030;7.024;2023-03-03T08:49:19;18.13;;;6.70;;
72127;SDS011;60000;51.030;7.024;2023-03-03T08:51:45;22.65;;;7.63;;
72127;SDS011;60000;51.030;7.024;2023-03-03T08:54:10;17.83;;;7.20;;
72127;SDS011;60000;51.030;7.024;2023-03-03T08:56:36;18.83;;;7.73;;
72127;SDS011;60000;51.030;7.024;2023-03-03T08:59:01;19.07;;;7.33;;
72127;SDS011;60000;51.030;7.024;2023-03-03T09:01:26;22.57;;;8.30;;
72127;SDS011;60000;51.030;7.024;2023-03-03T09:03:52;26.90;;;8.20;;
72127;SDS011;60000;51.030;7.024;2023-03-03T09:06:17;18.13;;;7.17;;
72127;SDS011;60000;51.030;7.024;2023-03-03T09:08:42;19.73;;;7.37;;
72127;SDS011;60000;51.030;7.024;2023-03-03T09:11:09;18.70;;;6.97;;
72127;SDS011;60000;51.030;7.024;2023-03-03T09:13:37;17.57;;;7.47;;
72127;SDS011;60000;51.030;7.024;2023-03-03T09:16:06;18.95;;;7.13;;
72127;SDS011;60000;51.030;7.024;2023-03-03T09:18:37;19.00;;;7.90;;
72127;SDS011;60000;51.030;7.024;2023-03-03T09:21:18;19.50;;;7.05;;
72127;SDS011;60000;51.030;7.024;2023-03-03T09:23:56;18.80;;;6.55;;
72127;SDS011;60000;51.030;7.024;2023-03-03T09:34:20;18.90;;;7.33;;
72127;SDS011;60000;51.030;7.024;2023-03-03T09:36:52;18.90;;;7.53;;
72127;SDS011;60000;51.030;7.024;2023-03-03T09:39:20;19.35;;;7.75;;
72127;SDS011;60000;51.030;7.024;2023-03-03T09:50:29;22.40;;;9.02;;
72127;SDS011;60000;51.030;7.024;2023-03-03T10:03:51;22.83;;;8.77;;
72127;SDS011;60000;51.030;7.024;2023-03-03T10:33:42;26.60;;;10.18;;
72127;SDS011;60000;51.030;7.024;2023-03-03T10:49:59;24.77;;;9.20;;
72127;SDS011;60000;51.030;7.024;2023-03-03T10:52:30;23.00;;;9.07;;
72127;SDS011;60000;51.030;7.024;2023-03-03T11:00:47;24.73;;;9.20;;
72127;SDS011;60000;51.030;7.024;2023-03-03T11:03:32;23.88;;;9.27;;
72127;SDS011;60000;51.030;7.024;2023-03-03T11:11:51;25.38;;;9.65;;
72127;SDS011;60000;51.030;7.024;2023-03-03T11:22:56;25.07;;;9.43;;
72127;SDS011;60000;51.030;7.024;2023-03-03T11:25:29;26.05;;;8.45;;
72127;SDS011;60000;51.030;7.024;2023-03-03T11:33:11;26.25;;;9.77;;
72127;SDS011;60000;51.030;7.024;2023-03-03T11:35:44;24.00;;;9.25;;
72127;SDS011;60000;51.030;7.024;2023-03-03T11:44:04;25.40;;;10.85;;
72127;SDS011;60000;51.030;7.024;2023-03-03T11:46:48;55.58;;;21.00;;
72127;SDS011;60000;51.030;7.024;2023-03-03T11:49:35;46.50;;;18.80;;
72127;SDS011;60000;51.030;7.024;2023-03-03T11:52:26;40.73;;;15.83;;
72127;SDS011;60000;51.030;7.024;2023-03-03T11:55:00;28.55;;;12.50;;
72127;SDS011;60000;51.030;7.024;2023-03-03T12:05:54;21.37;;;9.77;;
72127;SDS011;60000;51.030;7.024;2023-03-03T12:08:38;27.88;;;15.82;;
72127;SDS011;60000;51.030;7.024;2023-03-03T12:11:13;23.98;;;12.30;;
72127;SDS011;60000;51.030;7.024;2023-03-03T12:16:29;22.88;;;10.18;;
72127;SDS011;60000;51.030;7.024;2023-03-03T12:28:04;19.42;;;9.32;;
72127;SDS011;60000;51.030;7.024;2023-03-03T12:33:46;23.63;;;9.83;;
72127;SDS011;60000;51.030;7.024;2023-03-03T12:39:02;25.60;;;10.30;;
72127;SDS011;60000;51.030;7.024;2023-03-03T12:41:47;23.13;;;9.50;;
72127;SDS011;60000;51.030;7.024;2023-03-03T12:47:02;21.60;;;9.07;;
72127;SDS011;60000;51.030;7.024;2023-03-03T12:49:47;22.92;;;9.43;;
72127;SDS011;60000;51.030;7.024;2023-03-03T12:57:30;21.83;;;8.57;;
72127;SDS011;60000;51.030;7.024;2023-03-03T13:05:25;23.80;;;9.27;;
72127;SDS011;60000;51.030;7.024;2023-03-03T13:10:58;26.73;;;10.60;;
72127;SDS011;60000;51.030;7.024;2023-03-03T13:16:03;27.20;;;10.50;;
72127;SDS011;60000;51.030;7.024;2023-03-03T13:18:56;26.93;;;10.27;;
72127;SDS011;60000;51.030;7.024;2023-03-03T13:21:29;27.02;;;10.70;;
72127;SDS011;60000;51.030;7.024;2023-03-03T13:26:39;23.30;;;9.18;;
72127;SDS011;60000;51.030;7.024;2023-03-03T13:31:40;23.37;;;10.03;;
72127;SDS011;60000;51.030;7.024;2023-03-03T13:34:22;23.58;;;9.57;;
72127;SDS011;60000;51.030;7.024;2023-03-03T13:37:19;28.80;;;10.02;;
72127;SDS011;60000;51.030;7.024;2023-03-03T13:45:15;24.80;;;10.33;;
72127;SDS011;60000;51.030;7.024;2023-03-03T13:47:47;27.33;;;10.40;;
72127;SDS011;60000;51.030;7.024;2023-03-03T13:50:52;29.08;;;11.02;;
72127;SDS011;60000;51.030;7.024;2023-03-03T14:07:18;31.05;;;11.65;;
72127;SDS011;60000;51.030;7.024;2023-03-03T14:15:41;36.20;;;11.65;;
72127;SDS011;60000;51.030;7.024;2023-03-03T14:20:30;28.40;;;10.85;;
72127;SDS011;60000;51.030;7.024;2023-03-03T14:23:03;32.67;;;11.80;;
72127;SDS011;60000;51.030;7.024;2023-03-03T14:25:55;33.47;;;11.33;;
72127;SDS011;60000;51.030;7.024;2023-03-03T14:28:36;30.85;;;11.98;;
72127;SDS011;60000;51.030;7.024;2023-03-03T14:36:48;27.50;;;10.48;;
72127;SDS011;60000;51.030;7.024;2023-03-03T14:39:32;31.10;;;10.23;;
72127;SDS011;60000;51.030;7.024;2023-03-03T14:42:00;30.35;;;10.38;;
72127;SDS011;60000;51.030;7.024;2023-03-03T14:44:27;31.35;;;11.55;;
72127;SDS011;60000;51.030;7.024;2023-03-03T14:49:36;25.73;;;9.63;;
72127;SDS011;60000;51.030;7.024;2023-03-03T14:54:41;25.58;;;9.02;;
72127;SDS011;60000;51.030;7.024;2023-03-03T14:57:37;29.35;;;9.93;;
72127;SDS011;60000;51.030;7.024;2023-03-03T15:02:36;33.30;;;11.80;;
72127;SDS011;60000;51.030;7.024;2023-03-03T15:05:11;34.67;;;12.38;;
72127;SDS011;60000;51.030;7.024;2023-03-03T15:07:41;29.25;;;10.13;;
72127;SDS011;60000;51.030;7.024;2023-03-03T15:10:08;36.55;;;12.30;;
72127;SDS011;60000;51.030;7.024;2023-03-03T15:12:36;34.20;;;11.77;;
72127;SDS011;60000;51.030;7.024;2023-03-03T15:39:36;28.75;;;10.57;;
72127;SDS011;60000;51.030;7.024;2023-03-03T15:42:17;31.23;;;10.60;;
72127;SDS011;60000;51.030;7.024;2023-03-03T15:50:42;27.48;;;9.38;;
72127;SDS011;60000;51.030;7.024;2023-03-03T15:56:19;30.50;;;10.67;;
72127;SDS011;60000;51.030;7.024;2023-03-03T15:59:05;31.05;;;9.57;;
72127;SDS011;60000;51.030;7.024;2023-03-03T16:04:33;30.15;;;9.68;;
72127;SDS011;60000;51.030;7.024;2023-03-03T16:07:08;28.65;;;9.43;;
72127;SDS011;60000;51.030;7.024;2023-03-03T16:12:24;31.65;;;10.88;;
72127;SDS011;60000;51.030;7.024;2023-03-03T16:20:20;29.30;;;10.05;;
72127;SDS011;60000;51.030;7.024;2023-03-03T16:25:59;29.10;;;9.65;;
72127;SDS011;60000;51.030;7.024;2023-03-03T16:28:26;27.10;;;9.35;;
72127;SDS011;60000;51.030;7.024;2023-03-03T16:46:54;32.05;;;11.27;;
72127;SDS011;60000;51.030;7.024;2023-03-03T16:49:46;31.83;;;10.40;;
72127;SDS011;60000;51.030;7.024;2023-03-03T16:52:17;27.77;;;9.77;;
72127;SDS011;60000;51.030;7.024;2023-03-03T16:54:50;27.52;;;9.88;;
72127;SDS011;60000;51.030;7.024;2023-03-03T17:00:11;29.38;;;10.57;;
72127;SDS011;60000;51.030;7.024;2023-03-03T17:07:56;28.90;;;10.02;;
72127;SDS011;60000;51.030;7.024;2023-03-03T17:18:42;26.58;;;8.85;;
72127;SDS011;60000;51.030;7.024;2023-03-03T17:24:29;26.08;;;9.25;;
72127;SDS011;60000;51.030;7.024;2023-03-03T17:27:12;26.15;;;8.85;;
72127;SDS011;60000;51.030;7.024;2023-03-03T17:32:22;24.10;;;8.27;;
72127;SDS011;60000;51.030;7.024;2023-03-03T17:40:29;23.00;;;7.60;;
72127;SDS011;60000;51.030;7.024;2023-03-03T17:43:16;22.80;;;7.83;;
72127;SDS011;60000;51.030;7.024;2023-03-03T17:45:47;21.73;;;6.78;;
72127;SDS011;60000;51.030;7.024;2023-03-03T17:48:51;15.15;;;5.50;;
72127;SDS011;60000;51.030;7.024;2023-03-03T17:54:26;17.95;;;6.35;;
72127;SDS011;60000;51.030;7.024;2023-03-03T17:57:04;18.50;;;6.70;;
72127;SDS011;60000;51.030;7.024;2023-03-03T18:11:18;17.93;;;6.27;;
72127;SDS011;60000;51.030;7.024;2023-03-03T18:33:31;17.63;;;6.22;;
72127;SDS011;60000;51.030;7.024;2023-03-03T18:40:51;14.93;;;5.40;;
72127;SDS011;60000;51.030;7.024;2023-03-03T18:49:05;12.85;;;4.50;;
72127;SDS011;60000;51.030;7.024;2023-03-03T19:02:06;21.75;;;6.82;;
72127;SDS011;60000;51.030;7.024;2023-03-03T19:04:36;27.60;;;9.70;;
72127;SDS011;60000;51.030;7.024;2023-03-03T19:09:52;27.48;;;9.15;;
72127;SDS011;60000;51.030;7.024;2023-03-03T19:15:50;24.00;;;8.32;;
72127;SDS011;60000;51.030;7.024;2023-03-03T19:18:03;22.20;;;6.40;;
72127;SDS011;60000;51.030;7.024;2023-03-03T19:20:36;21.08;;;7.40;;
72127;SDS011;60000;51.030;7.024;2023-03-03T19:23:05;23.30;;;7.85;;
72127;SDS011;60000;51.030;7.024;2023-03-03T19:25:42;22.50;;;7.28;;
72127;SDS011;60000;51.030;7.024;2023-03-03T19:30:54;21.85;;;7.22;;
72127;SDS011;60000;51.030;7.024;2023-03-03T19:33:28;20.73;;;7.00;;
72127;SDS011;60000;51.030;7.024;2023-03-03T19:36:36;18.13;;;6.63;;
72127;SDS011;60000;51.030;7.024;2023-03-03T19:47:50;19.00;;;6.65;;
72127;SDS011;60000;51.030;7.024;2023-03-03T19:50:42;19.77;;;6.78;;
72127;SDS011;60000;51.030;7.024;2023-03-03T19:56:34;23.93;;;7.70;;
72127;SDS011;60000;51.030;7.024;2023-03-03T19:59:36;21.48;;;6.70;;
72127;SDS011;60000;51.030;7.024;2023-03-03T20:10:26;20.52;;;6.25;;
72127;SDS011;60000;51.030;7.024;2023-03-03T20:18:46;31.77;;;12.25;;
72127;SDS011;60000;51.030;7.024;2023-03-03T20:32:00;20.27;;;6.88;;
72127;SDS011;60000;51.030;7.024;2023-03-03T20:53:38;16.87;;;5.90;;
72127;SDS011;60000;51.030;7.024;2023-03-03T20:56:20;17.92;;;6.38;;
72127;SDS011;60000;51.030;7.024;2023-03-03T21:06:54;17.13;;;6.23;;
72127;SDS011;60000;51.030;7.024;2023-03-03T21:09:38;20.98;;;6.68;;
72127;SDS011;60000;51.030;7.024;2023-03-03T21:12:09;14.73;;;5.50;;
72127;SDS011;60000;51.030;7.024;2023-03-03T21:15:21;16.63;;;5.70;;
72127;SDS011;60000;51.030;7.024;2023-03-03T21:17:49;15.50;;;6.17;;
72127;SDS011;60000;51.030;7.024;2023-03-03T21:20:22;22.45;;;8.77;;
72127;SDS011;60000;51.030;7.024;2023-03-03T21:22:50;19.47;;;7.27;;
72127;SDS011;60000;51.030;7.024;2023-03-03T21:31:22;25.63;;;9.35;;
72127;SDS011;60000;51.030;7.024;2023-03-03T21:33:51;24.97;;;10.00;;
72127;SDS011;60000;51.030;7.024;2023-03-03T21:38:58;30.92;;;10.40;;
72127;SDS011;60000;51.030;7.024;2023-03-03T21:41:26;34.42;;;11.88;;
72127;SDS011;60000;51.030;7.024;2023-03-03T21:43:52;30.00;;;12.15;;
72127;SDS011;60000;51.030;7.024;2023-03-03T21:46:18;31.07;;;11.63;;
72127;SDS011;60000;51.030;7.024;2023-03-03T21:48:45;46.60;;;16.63;;
72127;SDS011;60000;51.030;7.024;2023-03-03T21:51:10;30.23;;;11.40;;
72127;SDS011;60000;51.030;7.024;2023-03-03T21:53:38;35.05;;;11.88;;
72127;SDS011;60000;51.030;7.024;2023-03-03T21:56:12;33.28;;;12.68;;
72127;SDS011;60000;51.030;7.024;2023-03-03T21:58:38;31.53;;;11.07;;
72127;SDS011;60000;51.030;7.024;2023-03-03T22:01:05;27.58;;;9.98;;
72127;SDS011;60000;51.030;7.024;2023-03-03T22:03:31;25.30;;;9.57;;
72127;SDS011;60000;51.030;7.024;2023-03-03T22:05:56;21.40;;;8.32;;
72127;SDS011;60000;51.030;7.024;2023-03-03T22:08:22;23.13;;;8.43;;
72127;SDS011;60000;51.030;7.024;2023-03-03T22:10:48;22.00;;;8.13;;
72127;SDS011;60000;51.030;7.024;2023-03-03T22:13:17;31.00;;;10.52;;
72127;SDS011;60000;51.030;7.024;2023-03-03T22:15:44;24.25;;;8.88;;
72127;SDS011;60000;51.030;7.024;2023-03-03T22:18:10;26.45;;;9.43;;